Tiempo atmosférico en la estación meteorológica de Tudela Ii, Navarra (300 m.)



Fecha
DESCASC
Temp. máxima en grados centígrados (hora)
DESCASC
Temp. mínima en grados centígrados (hora)
DESCASC
Temp. media en grados centígrados
DESCASC
Racha de viento máxima en m/sg (hora)
DESCASC
Velocidad máxima media en intervalos de 10 minutos(hora)
DESCASC
Precipitaciones diarias en mm
DESCASC
Precipitaciones de 00:00 a 06:00 en mm
DESCASC
Precipitaciones de 06:00 a 12:00 en mm
DESCASC
Precipitaciones de 12:00 a 18:00 en mm
DESCASC
Precipitaciones de 18:00 a 24:00 en mm
DESCASC

Gráficas

Temp. máximas Temp. mínimas Temp. medias Precipitaciones Rachas de viento máximas Velocidades máximas media en intervalos de 10 minutos

Datos horarios

Fecha y hora oficial Temperatura (ºC) Velocidad del viento (km/h) Dirección del viento Racha (km/h) Dirección de racha Precipitación (mm) Presión (hPa) Tendencia (hPa) Humedad (%)
2020-07-11 23:00:00 23.8 6 Noroeste 17 Noroeste 0 -- -- 58
2020-07-11 22:00:00 25.4 5 Noroeste 21 Norte 0 -- -- 55
2020-07-11 21:00:00 28.1 10 Norte 22 Norte 0 -- -- 48
2020-07-11 20:00:00 30.5 7 Norte 17 Nordeste 0 -- -- 41
2020-07-11 19:00:00 31.2 5 Noroeste 22 Oeste 0 -- -- 39
2020-07-11 18:00:00 30.9 5 Noroeste 18 Nordeste 0 -- -- 40
2020-07-11 17:00:00 29.8 10 Norte 23 Norte 0 -- -- 41
2020-07-11 16:00:00 29.2 9 Noroeste 22 Norte 0 -- -- 41
2020-07-11 15:00:00 28.1 10 Noroeste 23 Noroeste 0 -- -- 43
2020-07-11 14:00:00 26.6 8 Noroeste 24 Oeste 0 -- -- 47
2020-07-11 13:00:00 25 10 Noroeste 28 Noroeste 0 -- -- 51
2020-07-11 12:00:00 23.4 11 Noroeste 30 Noroeste 0 -- -- 53
2020-07-11 11:00:00 22.1 12 Noroeste 31 Oeste 0 -- -- 57
2020-07-11 10:00:00 20.8 12 Noroeste 29 Oeste 0 -- -- 59
2020-07-11 09:00:00 19.7 8 Noroeste 29 Norte 0 -- -- 63
2020-07-11 08:00:00 18.1 8 Noroeste 22 Oeste 0 -- -- 68
2020-07-11 07:00:00 17.5 8 Noroeste 22 Noroeste 0 -- -- 70
2020-07-11 06:00:00 17.8 10 Noroeste 23 Norte 0 -- -- 70
2020-07-11 05:00:00 18.2 9 Noroeste 28 Noroeste 0 -- -- 72
2020-07-11 04:00:00 18.3 8 Noroeste 24 Norte 0 -- -- 73
2020-07-11 03:00:00 18.8 7 Noroeste 26 Noroeste 0 -- -- 71
2020-07-11 02:00:00 19.3 9 Noroeste 30 Norte 0 -- -- 69
2020-07-11 01:00:00 19.8 8 Norte 26 Norte 0 -- -- 67
2020-07-11 00:00:00 19.8 8 Noroeste 22 Noroeste 0 -- -- 69
2020-07-10 23:00:00 19.7 9 Noroeste 36 Oeste 0 -- -- 69
2020-07-10 22:00:00 20.3 13 Norte 33 Noroeste 0 -- -- 68
2020-07-10 21:00:00 21.9 16 Norte 46 Noroeste 0 -- -- 63
2020-07-10 20:00:00 24.2 21 Norte 44 Norte 0 -- -- 57
2020-07-10 19:00:00 26.1 22 Norte 42 Noroeste 0 -- -- 54
2020-07-10 18:00:00 27.8 19 Norte 38 Norte 0 -- -- 51
2020-07-10 17:00:00 29.3 14 Norte 33 Norte 0 -- -- 49
2020-07-10 16:00:00 28.9 16 Norte 32 Norte 0 -- -- 50
2020-07-10 15:00:00 29.2 10 Norte 28 Norte 0 -- -- 50
2020-07-10 14:00:00 28.2 12 Norte 30 Norte 0 -- -- 51
2020-07-10 13:00:00 27.2 11 Norte 26 Noroeste 0 -- -- 53
2020-07-10 12:00:00 25.3 12 Noroeste 29 Norte 0 -- -- 57
2020-07-10 11:00:00 24 11 Norte 28 Norte 0 -- -- 61
2020-07-10 10:00:00 22.6 10 Noroeste 27 Noroeste 0 -- -- 64
2020-07-10 09:00:00 21.2 9 Noroeste 26 Oeste 0 -- -- 69
2020-07-10 08:00:00 19.5 11 Noroeste 23 Noroeste 0 -- -- 76
2020-07-10 07:00:00 19.2 10 Noroeste 24 Oeste 0 -- -- 79
2020-07-10 06:00:00 19.8 11 Noroeste 24 Oeste 0 -- -- 78
2020-07-10 05:00:00 20.5 10 Noroeste 30 Noroeste 0 -- -- 79
2020-07-10 04:00:00 21.2 10 Noroeste 24 Oeste 0 -- -- 77
2020-07-10 03:00:00 21.6 9 Noroeste 23 Norte 0 -- -- 76
2020-07-10 02:00:00 22.6 9 Norte 32 Norte 0 -- -- 73
2020-07-10 01:00:00 24.9 6 Noroeste 24 Oeste 0 -- -- 50
2020-07-10 00:00:00 26.1 6 Noroeste 17 Noroeste 0 -- -- 43
2020-07-09 23:00:00 26.7 7 Noroeste 20 Noroeste 0 -- -- 41
2020-07-09 22:00:00 27.7 8 Noroeste 27 Norte 0 -- -- 40
2020-07-09 21:00:00 29 9 Oeste 25 Oeste 0 -- -- 33
2020-07-09 20:00:00 30.4 10 Oeste 32 Oeste 0 -- -- 32
2020-07-09 19:00:00 32.8 5 Sudoeste 13 Sudeste 0 -- -- 31
2020-07-09 18:00:00 32.7 10 Sur 24 Sudeste 0 -- -- 46
2020-07-09 17:00:00 32.8 10 Sudeste 27 Sudeste 0 -- -- 46
2020-07-09 16:00:00 32.6 12 Sudeste 23 Sudeste 0 -- -- 43
2020-07-09 15:00:00 31.2 8 Sudeste 21 Sudeste 0 -- -- 47
2020-07-09 14:00:00 30.4 10 Sudeste 21 Sudeste 0 -- -- 47
2020-07-09 13:00:00 28.8 4 Nordeste 12 Nordeste 0 -- -- 55
2020-07-09 12:00:00 26.9 4 Noroeste 10 Norte 0 -- -- 61
2020-07-09 11:00:00 26.4 5 Norte 14 Noroeste 0 -- -- 59
2020-07-09 10:00:00 25.1 3 Noroeste 13 Oeste 0 -- -- 62
2020-07-09 09:00:00 22 6 Sudoeste 18 Sudeste 0 -- -- 71
2020-07-09 08:00:00 22.3 7 Nordeste 18 Norte 0 -- -- 70
2020-07-09 07:00:00 21.8 8 Norte 14 Norte 0 -- -- 70
2020-07-09 06:00:00 21.9 3 Este 18 Noroeste 0 -- -- 70
2020-07-09 05:00:00 23.1 5 Noroeste 23 Norte 0 -- -- 65
2020-07-09 04:00:00 23.8 12 Norte 26 Noroeste 0 -- -- 65
2020-07-09 03:00:00 24.5 13 Norte 30 Noroeste 0 -- -- 63
2020-07-09 02:00:00 25 4 Norte 14 Noroeste 0 -- -- 56
2020-07-09 01:00:00 25.7 5 Oeste 12 Oeste 0 -- -- 52
2020-07-09 00:00:00 26.7 8 Oeste 23 Este 0 -- -- 44
2020-07-08 23:00:00 28 14 Sudeste 31 Sudeste 0 -- -- 40
2020-07-08 22:00:00 28.4 2 Sudoeste 13 Nordeste 0 -- -- 38
2020-07-08 21:00:00 30 6 Sudeste 36 Sudeste 0 -- -- 33
2020-07-08 20:00:00 31 16 Sudeste 33 Sudeste 0 -- -- 32
2020-07-08 19:00:00 30.7 8 Sur 17 Sur 0 -- -- 40
2020-07-08 18:00:00 31.6 8 Sudeste 19 Sudeste 0 -- -- 37
2020-07-08 17:00:00 31.6 8 Sur 18 Este 0 -- -- 35
2020-07-08 16:00:00 30.5 8 Sudeste 18 Sudeste 0 -- -- 36
2020-07-08 15:00:00 29.1 8 Sur 16 Sur 0 -- -- 38
2020-07-08 14:00:00 27.1 5 Sur 16 Oeste 0 -- -- 44
2020-07-08 13:00:00 25.7 5 Sur 19 Nordeste 0 -- -- 47
2020-07-08 12:00:00 23.7 7 Este 18 Oeste 0 -- -- 55
2020-07-08 11:00:00 21.9 3 Sudoeste 13 Norte 0 -- -- 58
2020-07-08 10:00:00 20.6 8 Nordeste 13 Nordeste 0 -- -- 63
2020-07-08 09:00:00 19.4 6 Nordeste 13 Oeste 0 -- -- 68
2020-07-08 08:00:00 17.3 3 Noroeste 11 Oeste 0 -- -- 73
2020-07-08 07:00:00 16.8 2 Noroeste 5 Nordeste 0 -- -- 71
2020-07-08 06:00:00 17 0 Calma 7 Noroeste 0 -- -- 69
2020-07-08 05:00:00 17.8 4 Oeste 10 Oeste 0 -- -- 66
2020-07-08 04:00:00 18.4 3 Oeste 12 Noroeste 0 -- -- 66
2020-07-08 03:00:00 19.3 4 Noroeste 17 Noroeste 0 -- -- 65
2020-07-08 02:00:00 20.1 5 Noroeste 18 Norte 0 -- -- 62
2020-07-08 01:00:00 20.9 6 Noroeste 19 Oeste 0 -- -- 61
2020-07-08 00:00:00 22.1 8 Noroeste 21 Norte 0 -- -- 57
2020-07-07 23:00:00 23.1 4 Oeste 18 Noroeste 0 -- -- 52
2020-07-07 22:00:00 24.9 8 Norte 22 Norte 0 -- -- 50
2020-07-07 21:00:00 28 7 Noroeste 23 Noroeste 0 -- -- 36
2020-07-07 20:00:00 30.1 11 Norte 23 Norte 0 -- -- 32
2020-07-07 19:00:00 30.5 10 Norte 27 Norte 0 -- -- 29
2020-07-07 18:00:00 30.5 11 Norte 28 Norte 0 -- -- 30
2020-07-07 17:00:00 30 13 Norte 25 Norte 0 -- -- 31
2020-07-07 16:00:00 29.3 13 Norte 27 Norte 0 -- -- 34
2020-07-07 15:00:00 28.3 10 Norte 30 Nordeste 0 -- -- 36
2020-07-07 14:00:00 26.2 14 Norte 30 Norte 0 -- -- 39
2020-07-07 13:00:00 23.8 13 Noroeste 29 Oeste 0 -- -- 44
2020-07-07 12:00:00 22 12 Noroeste 31 Norte 0 -- -- 48
2020-07-07 11:00:00 20 14 Norte 33 Noroeste 0 -- -- 52
2020-07-07 10:00:00 18.4 13 Noroeste 35 Oeste 0 -- -- 54
2020-07-07 09:00:00 16.8 12 Noroeste 34 Noroeste 0 -- -- 59
2020-07-07 08:00:00 14.8 13 Noroeste 28 Oeste 0 -- -- 65
2020-07-07 07:00:00 14 9 Noroeste 26 Noroeste 0 -- -- 69
2020-07-07 06:00:00 14.2 9 Noroeste 26 Noroeste 0 -- -- 69
2020-07-07 05:00:00 14.4 10 Noroeste 30 Noroeste 0 -- -- 70
2020-07-07 04:00:00 14.9 9 Noroeste 34 Noroeste 0 -- -- 68
2020-07-07 03:00:00 15.6 10 Noroeste 32 Noroeste 0 -- -- 67
2020-07-07 02:00:00 16.2 9 Norte 37 Noroeste 0 -- -- 63
2020-07-07 01:00:00 16.8 13 Noroeste 40 Noroeste 0 -- -- 62
2020-07-07 00:00:00 17.6 11 Noroeste 27 Noroeste 0 -- -- 61
2020-07-06 23:00:00 18.7 8 Noroeste 32 Noroeste 0 -- -- 60
2020-07-06 22:00:00 19.9 11 Noroeste 36 Noroeste 0 -- -- 59
2020-07-06 21:00:00 21.5 13 Norte 39 Norte 0 -- -- 58
2020-07-06 20:00:00 23.4 18 Norte 49 Norte 0 -- -- 55
2020-07-06 19:00:00 24.6 21 Norte 47 Norte 0 -- -- 53
2020-07-06 18:00:00 25.6 23 Norte 43 Norte 0 -- -- 51
2020-07-06 17:00:00 26.9 21 Norte 41 Noroeste 0 -- -- 48
2020-07-06 16:00:00 27.3 21 Norte 45 Norte 0 -- -- 50
2020-07-06 15:00:00 27.3 17 Norte 49 Noroeste 0 -- -- 48
2020-07-06 14:00:00 26.7 17 Noroeste 44 Norte 0 -- -- 51
2020-07-06 13:00:00 25.6 16 Noroeste 41 Noroeste 0 -- -- 56
2020-07-06 12:00:00 24.7 13 Noroeste 40 Noroeste 0 -- -- 58
2020-07-06 11:00:00 23.9 14 Noroeste 39 Norte 0 -- -- 60
2020-07-06 10:00:00 23 16 Noroeste 37 Oeste 0 -- -- 62
2020-07-06 09:00:00 21.9 15 Noroeste 37 Noroeste 0 -- -- 65
2020-07-06 08:00:00 19.9 13 Noroeste 38 Norte 0 -- -- 69
2020-07-06 07:00:00 18.5 13 Noroeste 34 Norte 0 -- -- 72
2020-07-06 06:00:00 18.9 12 Noroeste 33 Noroeste 0 -- -- 66
2020-07-06 05:00:00 19.5 10 Noroeste 31 Oeste 0 -- -- 63
2020-07-06 04:00:00 20.5 9 Noroeste 29 Noroeste 0 -- -- 65
2020-07-06 03:00:00 21.4 12 Noroeste 33 Noroeste 0 -- -- 61
2020-07-06 02:00:00 22.4 12 Noroeste 25 Noroeste 0 -- -- 57
2020-07-06 01:00:00 23 11 Noroeste 30 Noroeste 0 -- -- 54
2020-07-06 00:00:00 23.5 10 Noroeste 30 Noroeste 0 -- -- 54
2020-07-05 23:00:00 24.3 11 Noroeste 33 Oeste 0 -- -- 53
2020-07-05 22:00:00 25.6 9 Noroeste 26 Norte 0 -- -- 51
2020-07-05 21:00:00 28.2 12 Norte 33 Nordeste 0 -- -- 48
2020-07-05 20:00:00 31.2 18 Norte 36 Noroeste 0 -- -- 41
2020-07-05 19:00:00 33.1 13 Norte 31 Norte 0 -- -- 35
2020-07-05 18:00:00 33.7 12 Norte 29 Norte 0 -- -- 33
2020-07-05 17:00:00 33.7 10 Norte 27 Norte 0 -- -- 33
2020-07-05 16:00:00 33.1 10 Norte 31 Noroeste 0 -- -- 34
2020-07-05 15:00:00 32.4 9 Norte 28 Norte 0 -- -- 34
2020-07-05 14:00:00 31.1 12 Norte 30 Norte 0 -- -- 35
2020-07-05 13:00:00 29.3 11 Norte 24 Norte 0 -- -- 38
2020-07-05 12:00:00 27.8 7 Norte 31 Norte 0 -- -- 39
2020-07-05 11:00:00 26.1 12 Norte 24 Noroeste 0 -- -- 42
2020-07-05 10:00:00 24.1 7 Noroeste 17 Noroeste 0 -- -- 45
2020-07-05 09:00:00 20.8 6 Noroeste 17 Noroeste 0 -- -- 52
2020-07-05 08:00:00 17.9 5 Oeste 17 Noroeste 0 -- -- 60
2020-07-05 07:00:00 17.5 4 Noroeste 15 Noroeste 0 -- -- 59
2020-07-05 06:00:00 17.7 4 Noroeste 9 Oeste 0 -- -- 60
2020-07-05 05:00:00 18.4 3 Noroeste 12 Norte 0 -- -- 59
2020-07-05 04:00:00 19.3 3 Norte 15 Noroeste 0 -- -- 55
2020-07-05 03:00:00 20 5 Noroeste 22 Oeste 0 -- -- 54
2020-07-05 02:00:00 20.3 10 Noroeste 27 Noroeste 0 -- -- 57
2020-07-05 01:00:00 21.1 9 Noroeste 33 Oeste 0 -- -- 48
2020-07-05 00:00:00 22 12 Noroeste 32 Oeste 0 -- -- 36
2020-07-04 23:00:00 23 9 Noroeste 30 Noroeste 0 -- -- 34
2020-07-04 22:00:00 24.5 14 Norte 34 Noroeste 0 -- -- 36
2020-07-04 21:00:00 26.7 14 Norte 35 Norte 0 -- -- 36
2020-07-04 20:00:00 28.8 15 Norte 35 Noroeste 0 -- -- 33
2020-07-04 19:00:00 30 15 Norte 29 Norte 0 -- -- 29
2020-07-04 18:00:00 30.2 12 Norte 33 Norte 0 -- -- 30
2020-07-04 17:00:00 30.3 12 Norte 31 Norte 0 -- -- 30
2020-07-04 16:00:00 29.2 11 Noroeste 28 Noroeste 0 -- -- 31
2020-07-04 15:00:00 28.3 10 Norte 30 Norte 0 -- -- 30
2020-07-04 14:00:00 26.5 12 Noroeste 31 Noroeste 0 -- -- 32
2020-07-04 13:00:00 25.2 12 Norte 30 Nordeste 0 -- -- 30
2020-07-04 12:00:00 23.7 10 Noroeste 26 Norte 0 -- -- 32
2020-07-04 11:00:00 21.5 10 Norte 28 Noroeste 0 -- -- 43
2020-07-04 10:00:00 19.1 10 Noroeste 26 Noroeste 0 -- -- 54
2020-07-04 09:00:00 16.8 8 Noroeste 26 Norte 0 -- -- 66
2020-07-04 08:00:00 13.9 9 Noroeste 18 Noroeste 0 -- -- 78
2020-07-04 07:00:00 13.1 5 Oeste 19 Noroeste 0 -- -- 79
2020-07-04 06:00:00 13.7 6 Noroeste 16 Noroeste 0 -- -- 75
2020-07-04 05:00:00 14.3 6 Noroeste 17 Oeste 0 -- -- 71
2020-07-04 04:00:00 14.4 10 Noroeste 23 Noroeste 0 -- -- 70
2020-07-04 03:00:00 15.1 9 Noroeste 21 Norte 0 -- -- 66
2020-07-04 02:00:00 15.7 9 Noroeste 27 Noroeste 0 -- -- 64
2020-07-04 01:00:00 16.2 9 Noroeste 21 Oeste 0 -- -- 60
2020-07-04 00:00:00 17 7 Noroeste 29 Nordeste 0 -- -- 59
2020-07-03 23:00:00 17.8 9 Noroeste 31 Norte 0 -- -- 57
2020-07-03 22:00:00 19 18 Norte 36 Norte 0 -- -- 53
2020-07-03 21:00:00 20.9 15 Norte 36 Noroeste 0 -- -- 48
2020-07-03 20:00:00 22.6 17 Norte 41 Norte 0 -- -- 45
2020-07-03 19:00:00 23.2 22 Norte 42 Norte 0 -- -- 44
2020-07-03 18:00:00 23.8 18 Norte 42 Norte 0 -- -- 43
2020-07-03 17:00:00 24.1 21 Norte 42 Norte 0 -- -- 42
2020-07-03 16:00:00 24.5 15 Norte 37 Norte 0 -- -- 41
2020-07-03 15:00:00 23.9 17 Norte 38 Norte 0 -- -- 39
2020-07-03 14:00:00 23.3 12 Noroeste 37 Norte 0 -- -- 41
2020-07-03 13:00:00 21.9 14 Norte 35 Noroeste 0 -- -- 49
2020-07-03 12:00:00 21.1 13 Norte 36 Oeste 0 -- -- 50
2020-07-03 11:00:00 20.2 16 Norte 30 Noroeste 0 -- -- 51
2020-07-03 10:00:00 18.8 14 Noroeste 35 Oeste 0 -- -- 61
2020-07-03 09:00:00 17.8 14 Noroeste 33 Noroeste 0 -- -- 64
2020-07-03 08:00:00 16.5 14 Noroeste 31 Noroeste 0 -- -- 71
2020-07-03 07:00:00 15.6 10 Noroeste 27 Noroeste 0 -- -- 75
2020-07-03 06:00:00 15.7 10 Noroeste 28 Noroeste 0 -- -- 75
2020-07-03 05:00:00 16 12 Noroeste 27 Noroeste 0 -- -- 74
2020-07-03 04:00:00 16.2 12 Noroeste 31 Noroeste 0 -- -- 75
2020-07-03 03:00:00 16.9 13 Noroeste 32 Oeste 0 -- -- 69
2020-07-03 02:00:00 17.1 12 Noroeste 29 Oeste 0 -- -- 69
2020-07-03 01:00:00 17.3 12 Noroeste 27 Noroeste 0 -- -- 70
2020-07-03 00:00:00 17.7 11 Noroeste 33 Norte 0 -- -- 69
2020-07-02 23:00:00 18 12 Norte 36 Norte 0 -- -- 66
2020-07-02 22:00:00 18.5 15 Norte 40 Norte 0 -- -- 65
2020-07-02 21:00:00 19.3 19 Norte 45 Noroeste 0 -- -- 64
2020-07-02 20:00:00 21.4 21 Norte 47 Norte 0 -- -- 58
2020-07-02 19:00:00 23.6 15 Norte 41 Norte 0 -- -- 54
2020-07-02 18:00:00 24 17 Norte 41 Noroeste 0 -- -- 54
2020-07-02 17:00:00 25.5 17 Norte 37 Norte 0 -- -- 52
2020-07-02 16:00:00 27.1 16 Norte 34 Norte 0 -- -- 48
2020-07-02 15:00:00 26.8 14 Norte 33 Norte 0 -- -- 50
2020-07-02 14:00:00 26 13 Norte 33 Norte 0 -- -- 51
2020-07-02 13:00:00 24.9 13 Norte 30 Norte 0 -- -- 54
2020-07-02 12:00:00 24.1 11 Norte 30 Nordeste 0 -- -- 57
2020-07-02 11:00:00 23.5 10 Noroeste 25 Noroeste 0 -- -- 58
2020-07-02 10:00:00 21.9 9 Noroeste 26 Noroeste 0 -- -- 63
2020-07-02 09:00:00 19.7 10 Norte 27 Norte 0 -- -- 71
2020-07-02 08:00:00 18.7 9 Norte 24 Norte 0 -- -- 75
2020-07-02 07:00:00 18.5 8 Noroeste 23 Oeste 0 -- -- 77
2020-07-02 06:00:00 18.9 9 Noroeste 24 Noroeste 0 -- -- 77
2020-07-02 05:00:00 19.4 8 Noroeste 25 Noroeste 0 -- -- 74
2020-07-02 04:00:00 19.7 6 Noroeste 22 Noroeste 0 -- -- 71
2020-07-02 03:00:00 20 8 Noroeste 20 Noroeste 0 -- -- 70
2020-07-02 02:00:00 20.2 8 Noroeste 23 Noroeste 0 -- -- 68
2020-07-02 01:00:00 20.4 10 Noroeste 25 Noroeste 0 -- -- 69
2020-07-02 00:00:00 20.5 10 Noroeste 30 Noroeste 0 -- -- 70
2020-07-01 23:00:00 21.1 8 Noroeste 29 Noroeste 0 -- -- 70
2020-07-01 22:00:00 22.3 11 Norte 37 Noroeste 0 -- -- 66
2020-07-01 21:00:00 24.4 12 Norte 31 Norte 0 -- -- 62
2020-07-01 20:00:00 26.6 12 Norte 30 Norte 0 -- -- 56
2020-07-01 19:00:00 26.6 17 Norte 40 Norte 0 -- -- 56
2020-07-01 18:00:00 29 23 Norte 44 Nordeste 0 -- -- 52
2020-07-01 17:00:00 32.6 12 Norte 30 Norte 0 -- -- 48
2020-07-01 16:00:00 32.3 12 Norte 27 Oeste 0 -- -- 47
2020-07-01 15:00:00 31.2 10 Norte 21 Noroeste 0 -- -- 51
2020-07-01 14:00:00 30.3 7 Noroeste 20 Noroeste 0 -- -- 54
2020-07-01 13:00:00 28.7 5 Norte 11 Norte 0 -- -- 59
2020-07-01 12:00:00 27.5 4 Este 13 Nordeste 0 -- -- 61
2020-07-01 11:00:00 26 6 Este 13 Sur 0 -- -- 67
2020-07-01 10:00:00 25.2 5 Sudeste 14 Sudeste 0 -- -- 72
2020-07-01 09:00:00 23.2 8 Sudeste 14 Sudeste 0 -- -- 78
2020-07-01 08:00:00 21.5 2 Sur 9 Sudoeste 0 -- -- 83
2020-07-01 07:00:00 21.2 2 Sudeste 5 Este 0 -- -- 85
2020-07-01 06:00:00 21.8 0 Calma 7 Este 0 -- -- 83
2020-07-01 05:00:00 22 5 Este 14 Sudeste 0 -- -- 82
2020-07-01 04:00:00 22.9 5 Sudeste 17 Sudeste 0 -- -- 76
2020-07-01 03:00:00 23.1 5 Este 13 Este 0 -- -- 68
2020-07-01 02:00:00 23.4 5 Sudoeste 11 Sudoeste 0 -- -- 66
2020-07-01 01:00:00 24.5 3 Sudoeste 15 Este 0 -- -- 63
2020-07-01 00:00:00 25.4 6 Nordeste 18 Nordeste 0 -- -- 59
2020-06-30 23:00:00 25.7 6 Oeste 13 Oeste 0 -- -- 57
2020-06-30 22:00:00 26.7 2 Oeste 12 Oeste 0 -- -- 53
2020-06-30 21:00:00 28.2 3 Sudoeste 18 Noroeste 0 -- -- 48
2020-06-30 20:00:00 29.3 7 Oeste 14 Oeste 0 -- -- 41
2020-06-30 19:00:00 30 4 Oeste 10 Norte 0 -- -- 43
2020-06-30 18:00:00 30 5 Oeste 9 Oeste 0 -- -- 42
2020-06-30 17:00:00 29.2 5 Sur 13 Sur 0 -- -- 42
2020-06-30 16:00:00 30.2 9 Sur 19 Sur 0 -- -- 38
2020-06-30 15:00:00 29.2 7 Sudeste 21 Sudeste 0 -- -- 36
2020-06-30 14:00:00 28.1 7 Sudeste 15 Sudeste 0 -- -- 26
2020-06-30 13:00:00 26.4 3 Oeste 12 Nordeste 0 -- -- 42
2020-06-30 12:00:00 24.3 3 Este 13 Nordeste 0 -- -- 52
2020-06-30 11:00:00 22.7 7 Nordeste 15 Norte 0 -- -- 59
2020-06-30 10:00:00 21 5 Noroeste 17 Noroeste 0 -- -- 61
2020-06-30 09:00:00 19.2 6 Noroeste 18 Noroeste 0 -- -- 71
2020-06-30 08:00:00 17.1 6 Noroeste 12 Norte 0 -- -- 80
2020-06-30 07:00:00 16 4 Noroeste 16 Oeste 0 -- -- 83
2020-06-30 06:00:00 16.4 6 Oeste 12 Noroeste 0 -- -- 81
2020-06-30 05:00:00 16.9 3 Noroeste 12 Noroeste 0 -- -- 77
2020-06-30 04:00:00 17.2 5 Noroeste 13 Norte 0 -- -- 76
2020-06-30 03:00:00 17.6 4 Norte 17 Norte 0 -- -- 74
2020-06-30 02:00:00 18.1 8 Norte 20 Oeste 0 -- -- 74
2020-06-30 01:00:00 18.7 8 Norte 26 Noroeste 0 -- -- 72
2020-06-30 00:00:00 19.6 10 Norte 24 Noroeste 0 -- -- 71
2020-06-29 23:00:00 20.2 9 Noroeste 28 Norte 0 -- -- 69
2020-06-29 22:00:00 21.7 4 Noroeste 26 Norte 0 -- -- 64
2020-06-29 21:00:00 23.4 13 Norte 36 Norte 0 -- -- 60
2020-06-29 20:00:00 26.1 15 Norte 47 Noroeste 0 -- -- 54
2020-06-29 19:00:00 27.5 17 Norte 43 Norte 0 -- -- 51
2020-06-29 18:00:00 28.7 13 Norte 35 Norte 0 -- -- 49
2020-06-29 17:00:00 29.1 13 Norte 31 Norte 0 -- -- 49
2020-06-29 16:00:00 28.8 12 Norte 28 Norte 0 -- -- 49
2020-06-29 15:00:00 27.5 18 Norte 31 Norte 0 -- -- 51
2020-06-29 14:00:00 26.9 12 Norte 28 Noroeste 0 -- -- 53
2020-06-29 13:00:00 26.2 9 Norte 26 Norte 0 -- -- 56
2020-06-29 12:00:00 25.4 9 Noroeste 28 Noroeste 0 -- -- 57
2020-06-29 11:00:00 24.2 11 Norte 24 Norte 0 -- -- 59
2020-06-29 10:00:00 23.1 11 Noroeste 28 Norte 0 -- -- 65
2020-06-29 09:00:00 21.7 10 Noroeste 28 Norte 0 -- -- 69
2020-06-29 08:00:00 20.4 8 Noroeste 21 Noroeste 0 -- -- 74
2020-06-29 07:00:00 19.4 5 Noroeste 20 Noroeste 0 -- -- 75
2020-06-29 06:00:00 19.6 6 Noroeste 17 Noroeste 0 -- -- 76
2020-06-29 05:00:00 19.7 9 Noroeste 19 Noroeste 0 -- -- 76
2020-06-29 04:00:00 19.9 9 Noroeste 22 Noroeste 0 -- -- 75
2020-06-29 03:00:00 20.3 7 Noroeste 23 Noroeste 0 -- -- 73
2020-06-29 02:00:00 20.7 10 Noroeste 30 Oeste 0 -- -- 71
2020-06-29 01:00:00 21.2 11 Noroeste 28 Noroeste 0 -- -- 68
2020-06-29 00:00:00 21.9 8 Norte 37 Noroeste 0 -- -- 64
2020-06-28 23:00:00 23.4 13 Norte 37 Norte 0 -- -- 59
2020-06-28 22:00:00 25.9 9 Noroeste 30 Norte 0 -- -- 54
2020-06-28 21:00:00 28.4 13 Norte 30 Norte 0 -- -- 49
2020-06-28 20:00:00 30.9 15 Norte 29 Norte 0 -- -- 44
2020-06-28 19:00:00 32.4 8 Norte 18 Nordeste 0 -- -- 41
2020-06-28 18:00:00 32.4 6 Norte 15 Noroeste 0 -- -- 42
2020-06-28 17:00:00 31.5 5 Nordeste 17 Norte 0 -- -- 43
2020-06-28 16:00:00 31.2 7 Nordeste 17 Nordeste 0 -- -- 43
2020-06-28 15:00:00 30.1 6 Nordeste 17 Nordeste 0 -- -- 45
2020-06-28 14:00:00 29.1 10 Nordeste 23 Nordeste 0 -- -- 50
2020-06-28 13:00:00 27.6 11 Nordeste 18 Nordeste 0 -- -- 56
2020-06-28 12:00:00 26.9 5 Nordeste 15 Norte 0 -- -- 62
2020-06-28 11:00:00 24.9 8 Nordeste 17 Noroeste 0 -- -- 61
2020-06-28 10:00:00 22.9 6 Noroeste 18 Norte 0 -- -- 68
2020-06-28 09:00:00 21.5 5 Noroeste 18 Norte 0 -- -- 70
2020-06-28 08:00:00 20.1 4 Noroeste 12 Oeste 0 -- -- 75
2020-06-28 07:00:00 19.7 6 Noroeste 19 Noroeste 0 -- -- 75
2020-06-28 06:00:00 20.2 5 Noroeste 17 Norte 0 -- -- 73
2020-06-28 05:00:00 21 6 Noroeste 16 Noroeste 0 -- -- 71
2020-06-28 04:00:00 21.7 3 Oeste 19 Noroeste 0 -- -- 69
2020-06-28 03:00:00 22.2 8 Noroeste 21 Noroeste 0 -- -- 69
2020-06-28 02:00:00 22.8 8 Oeste 18 Oeste 0 -- -- 68
2020-06-28 01:00:00 23.5 5 Oeste 14 Oeste 0 -- -- 67
2020-06-28 00:00:00 24.7 7 Oeste 14 Oeste 0 -- -- 64
2020-06-27 23:00:00 26 5 Noroeste 12 Noroeste 0 -- -- 60
2020-06-27 22:00:00 27.9 2 Oeste 8 Nordeste 0 -- -- 49
2020-06-27 21:00:00 29.5 3 Norte 16 Norte 0 -- -- 43
2020-06-27 20:00:00 30.9 7 Noroeste 15 Noroeste 0 -- -- 41
2020-06-27 19:00:00 31.2 5 Norte 15 Nordeste 0 -- -- 41
2020-06-27 18:00:00 31 7 Nordeste 18 Este 0 -- -- 38
2020-06-27 17:00:00 30.9 8 Nordeste 18 Nordeste 0 -- -- 39
2020-06-27 16:00:00 30.3 7 Norte 19 Norte 0 -- -- 40
2020-06-27 15:00:00 29.4 5 Nordeste 19 Norte 0 -- -- 44
2020-06-27 14:00:00 28.2 6 Norte 14 Nordeste 0 -- -- 50
2020-06-27 13:00:00 27.1 6 Nordeste 16 Nordeste 0 -- -- 48
2020-06-27 12:00:00 25.4 7 Nordeste 14 Nordeste 0 -- -- 61
2020-06-27 11:00:00 23.7 8 Nordeste 15 Nordeste 0 -- -- 68
2020-06-27 10:00:00 22 8 Norte 13 Noroeste 0 -- -- 70
2020-06-27 09:00:00 20.3 5 Nordeste 14 Oeste 0 -- -- 80
2020-06-27 08:00:00 18.2 4 Noroeste 12 Norte 0 -- -- 86
2020-06-27 07:00:00 16.8 6 Oeste 12 Oeste 0 -- -- 94
2020-06-27 06:00:00 17.2 2 Oeste 6 Noroeste 0 -- -- 91
2020-06-27 05:00:00 17.6 0 Calma 8 Noroeste 0 -- -- 90
2020-06-27 04:00:00 17.8 5 Oeste 9 Oeste 0 -- -- 90
2020-06-27 03:00:00 18 3 Noroeste 9 Oeste 0 -- -- 88
2020-06-27 02:00:00 18.9 2 Noroeste 5 Oeste 0 -- -- 84
2020-06-27 01:00:00 19.6 4 Oeste 10 Nordeste 0 -- -- 81
2020-06-27 00:00:00 20.7 7 Nordeste 13 Nordeste 0 -- -- 75
2020-06-26 23:00:00 21.3 3 Nordeste 10 Nordeste 0 -- -- 75
2020-06-26 22:00:00 21.8 8 Norte 14 Sur 0 -- -- 75
2020-06-26 21:00:00 22.4 8 Sur 21 Sur 0 -- -- 70
2020-06-26 20:00:00 22.9 8 Sur 22 Sudeste 0 -- -- 70
2020-06-26 19:00:00 22.6 5 Sudeste 32 Sur 1.4 -- -- 73
2020-06-26 18:00:00 21.3 7 Sur 18 Sur 0.4 -- -- 81
2020-06-26 17:00:00 21.9 9 Sur 34 Sudeste 0.6 -- -- 78
2020-06-26 16:00:00 23.6 10 Sur 23 Sur 2.2 -- -- 69
2020-06-26 15:00:00 28.7 10 Sudeste 31 Sudeste 0 -- -- 38
2020-06-26 14:00:00 29.1 12 Sudeste 29 Sudeste 0 -- -- 38
2020-06-26 13:00:00 26.9 12 Sudeste 30 Sudeste 0 -- -- 45
2020-06-26 12:00:00 25.5 13 Sudeste 26 Sudeste 0 -- -- 51
2020-06-26 11:00:00 23.3 9 Sudeste 22 Sudeste 0.2 -- -- 69
2020-06-26 10:00:00 21.2 8 Sudeste 18 Sudeste 0 -- -- 78
2020-06-26 09:00:00 19.9 6 Sudeste 14 Este 0 -- -- 81
2020-06-26 08:00:00 18.7 2 Sudeste 6 Sudeste 0 -- -- 87
2020-06-26 07:00:00 18.7 3 Sur 10 Sudeste 0 -- -- 86
2020-06-26 06:00:00 19.1 2 Sudeste 9 Sudeste 0 -- -- 87
2020-06-26 05:00:00 19.3 3 Sudeste 8 Nordeste 0 -- -- 87
2020-06-26 04:00:00 19.3 5 Nordeste 10 Nordeste 0 -- -- 91
2020-06-26 03:00:00 19.7 4 Sudeste 9 Este 0 -- -- 91
2020-06-26 02:00:00 19.7 3 Este 13 Sudeste 0 -- -- 92
2020-06-26 01:00:00 19.9 4 Sudeste 12 Sudeste 0 -- -- 92
2020-06-26 00:00:00 19.8 4 Sudoeste 12 Oeste 0 -- -- 91
2020-06-25 23:00:00 20.3 6 Oeste 17 Sur 0 -- -- 90
2020-06-25 22:00:00 20.5 8 Sudeste 31 Norte 0.2 -- -- 90
2020-06-25 21:00:00 20.8 10 Norte 27 Norte 2.4 -- -- 86
2020-06-25 20:00:00 23.6 13 Norte 42 Noroeste 0 -- -- 72
2020-06-25 19:00:00 25 5 Oeste 23 Oeste 0 -- -- 64
2020-06-25 18:00:00 27.8 11 Oeste 30 Sudoeste 0 -- -- 56
2020-06-25 17:00:00 31 3 Noroeste 14 Noroeste 0 -- -- 43
2020-06-25 16:00:00 32.5 8 Norte 15 Nordeste 0 -- -- 41
2020-06-25 15:00:00 31.7 3 Este 15 Norte 0 -- -- 39
2020-06-25 14:00:00 30 3 Nordeste 21 Este 0 -- -- 45
2020-06-25 13:00:00 28.3 11 Sudeste 25 Sudeste 0 -- -- 47
2020-06-25 12:00:00 26.9 12 Sudeste 30 Sudeste 0 -- -- 53
2020-06-25 11:00:00 25.4 9 Sudeste 21 Sudeste 0 -- -- 58
2020-06-25 10:00:00 23.6 8 Sudeste 16 Sudeste 0 -- -- 62
2020-06-25 09:00:00 22.2 4 Sudeste 8 Sudeste 0 -- -- 65
2020-06-25 08:00:00 19.9 2 Sur 4 Sudeste 0 -- -- 72
2020-06-25 07:00:00 18.6 0 Calma 7 Oeste 0 -- -- 74
2020-06-25 06:00:00 19.4 3 Sudoeste 5 Sur 0 -- -- 72
2020-06-25 05:00:00 19.7 4 Sur 6 Sur 0 -- -- 72
2020-06-25 04:00:00 20.5 2 Oeste 7 Nordeste 0 -- -- 68
2020-06-25 03:00:00 21.6 2 Nordeste 13 Nordeste 0 -- -- 64
2020-06-25 02:00:00 22.2 6 Nordeste 9 Nordeste 0 -- -- 61
2020-06-25 01:00:00 22.9 4 Este 17 Sudeste 0 -- -- 58
2020-06-25 00:00:00 23.9 8 Sudeste 26 Sur 0 -- -- 54
2020-06-24 23:00:00 25.4 7 Sur 23 Sudeste 0 -- -- 54
2020-06-24 22:00:00 26.5 11 Sudeste 28 Sudeste 0 -- -- 50
2020-06-24 21:00:00 28.4 13 Este 35 Este 0 -- -- 46
2020-06-24 20:00:00 31.4 13 Sudeste 32 Sudeste 0 -- -- 38
2020-06-24 19:00:00 34.1 11 Sudeste 20 Sudeste 0 -- -- 32
2020-06-24 18:00:00 34.2 8 Sudoeste 27 Sur 0 -- -- 30
2020-06-24 17:00:00 33.3 12 Sudoeste 30 Sudoeste 0 -- -- 31
2020-06-24 16:00:00 32 5 Noroeste 10 Oeste 0 -- -- 43
2020-06-24 15:00:00 31.1 5 Este 11 Este 0 -- -- 45
2020-06-24 14:00:00 30 6 Sur 16 Sur 0 -- -- 48
2020-06-24 13:00:00 28.7 7 Sudeste 20 Sudeste 0 -- -- 50
2020-06-24 12:00:00 27.6 10 Sudeste 18 Sur 0 -- -- 52
2020-06-24 11:00:00 25.5 4 Sur 14 Sudeste 0 -- -- 61
2020-06-24 10:00:00 23.5 8 Sudeste 14 Sur 0 -- -- 69
2020-06-24 09:00:00 22 8 Sur 25 Sudeste 0 -- -- 74
2020-06-24 08:00:00 20.9 4 Sudeste 10 Sudeste 0 -- -- 77
2020-06-24 07:00:00 21.1 4 Sudeste 16 Sur 0 -- -- 76
2020-06-24 06:00:00 21.6 11 Sudeste 19 Sudeste 0 -- -- 74
2020-06-24 05:00:00 22.3 7 Sur 17 Sudeste 0 -- -- 70
2020-06-24 04:00:00 22.8 6 Sudoeste 21 Sudeste 0 -- -- 68
2020-06-24 03:00:00 23.8 12 Sudeste 19 Sudeste 0 -- -- 65
2020-06-24 02:00:00 24.2 5 Sur 17 Sudeste 0 -- -- 64
2020-06-24 01:00:00 25.3 2 Nordeste 13 Sudeste 0 -- -- 61
2020-06-24 00:00:00 26.8 12 Sudeste 31 Sudeste 0 -- -- 55
2020-06-23 23:00:00 27.7 6 Sur 10 Sudeste 0 -- -- 51
2020-06-23 22:00:00 29.1 0 Calma 7 Oeste 0 -- -- 47
2020-06-23 21:00:00 30.4 2 Sur 5 Sur 0 -- -- 41
2020-06-23 20:00:00 31.9 2 Sudoeste 10 Sudoeste 0 -- -- 38
2020-06-23 19:00:00 33.6 8 Sur 19 Sur 0 -- -- 32
2020-06-23 18:00:00 33.5 6 Sur 19 Sudeste 0 -- -- 35
2020-06-23 17:00:00 32.6 7 Sudeste 22 Sudeste 0 -- -- 37
2020-06-23 16:00:00 31.7 9 Sudeste 20 Sudeste 0 -- -- 40
2020-06-23 15:00:00 30.8 7 Sudeste 21 Sudeste 0 -- -- 42
2020-06-23 14:00:00 29.3 8 Sudeste 21 Sudeste 0 -- -- 38
2020-06-23 13:00:00 27.3 8 Sudeste 18 Sudeste 0 -- -- 49
2020-06-23 12:00:00 25.8 7 Sudeste 14 Sudeste 0 -- -- 48
2020-06-23 11:00:00 23.8 4 Nordeste 9 Nordeste 0 -- -- 56
2020-06-23 10:00:00 22.1 3 Sudeste 8 Nordeste 0 -- -- 65
2020-06-23 09:00:00 19.8 4 Noroeste 10 Oeste 0 -- -- 70
2020-06-23 08:00:00 16.4 6 Oeste 10 Oeste 0 -- -- 76
2020-06-23 07:00:00 15.5 3 Oeste 6 Sudoeste 0 -- -- 81
2020-06-23 06:00:00 15.7 3 Norte 5 Norte 0 -- -- 79
2020-06-23 05:00:00 16.6 0 Calma 5 Oeste 0 -- -- 76
2020-06-23 04:00:00 18 2 Oeste 5 Oeste 0 -- -- 72
2020-06-23 03:00:00 19.5 4 Noroeste 10 Norte 0 -- -- 67
2020-06-23 02:00:00 20.2 3 Oeste 13 Noroeste 0 -- -- 65
2020-06-23 01:00:00 21.2 5 Noroeste 14 Noroeste 0 -- -- 62
2020-06-23 00:00:00 22 5 Noroeste 19 Norte 0 -- -- 57
2020-06-22 23:00:00 23.2 9 Noroeste 18 Oeste 0 -- -- 54
2020-06-22 22:00:00 25.1 6 Noroeste 29 Noroeste 0 -- -- 49
2020-06-22 21:00:00 27.6 12 Norte 30 Norte 0 -- -- 40
2020-06-22 20:00:00 29.9 12 Norte 27 Norte 0 -- -- 35
2020-06-22 19:00:00 30.8 11 Norte 27 Norte 0 -- -- 33
2020-06-22 18:00:00 30.7 13 Norte 28 Nordeste 0 -- -- 33
2020-06-22 17:00:00 30.2 13 Norte 30 Norte 0 -- -- 35
2020-06-22 16:00:00 29.6 12 Norte 26 Norte 0 -- -- 37
2020-06-22 15:00:00 28.2 10 Norte 26 Noroeste 0 -- -- 43
2020-06-22 14:00:00 27 13 Norte 30 Noroeste 0 -- -- 45
2020-06-22 13:00:00 25.7 9 Noroeste 31 Noroeste 0 -- -- 48
2020-06-22 12:00:00 24.4 10 Noroeste 32 Noroeste 0 -- -- 52
2020-06-22 11:00:00 22.6 13 Noroeste 32 Noroeste 0 -- -- 59
2020-06-22 10:00:00 21.7 10 Norte 32 Norte 0 -- -- 63
2020-06-22 09:00:00 20.3 12 Noroeste 41 Oeste 0 -- -- 67
2020-06-22 08:00:00 18.5 14 Noroeste 30 Oeste 0 -- -- 73
2020-06-22 07:00:00 17.3 12 Noroeste 33 Noroeste 0 -- -- 76
2020-06-22 06:00:00 17.5 8 Noroeste 24 Noroeste 0 -- -- 74
2020-06-22 05:00:00 17.8 10 Noroeste 28 Noroeste 0 -- -- 72
2020-06-22 04:00:00 18.6 12 Noroeste 28 Noroeste 0 -- -- 68
2020-06-22 03:00:00 18.7 13 Noroeste 28 Noroeste 0 -- -- 66
2020-06-22 02:00:00 19.1 13 Noroeste 34 Oeste 0 -- -- 62
2020-06-22 01:00:00 20.1 14 Noroeste 34 Noroeste 0 -- -- 59
2020-06-22 00:00:00 21 12 Noroeste 32 Norte 0 -- -- 57
2020-06-21 23:00:00 21.7 12 Noroeste 37 Norte 0 -- -- 54
2020-06-21 22:00:00 23.2 12 Noroeste 32 Noroeste 0 -- -- 48
2020-06-21 21:00:00 25.1 16 Norte 41 Norte 0 -- -- 43
2020-06-21 20:00:00 27.2 17 Norte 40 Norte 0 -- -- 38
2020-06-21 19:00:00 28.6 20 Norte 41 Norte 0 -- -- 34
2020-06-21 18:00:00 29.6 17 Norte 37 Nordeste 0 -- -- 35
2020-06-21 17:00:00 30.2 16 Norte 40 Nordeste 0 -- -- 34
2020-06-21 16:00:00 30.2 15 Norte 30 Norte 0 -- -- 34
2020-06-21 15:00:00 29.7 10 Norte 30 Noroeste 0 -- -- 37
2020-06-21 14:00:00 28.8 11 Norte 23 Noroeste 0 -- -- 37
2020-06-21 13:00:00 27.7 12 Norte 27 Norte 0 -- -- 36
2020-06-21 12:00:00 26.1 9 Norte 22 Norte 0 -- -- 39
2020-06-21 11:00:00 24.5 10 Norte 20 Norte 0 -- -- 44
2020-06-21 10:00:00 22.4 5 Noroeste 13 Noroeste 0 -- -- 55
2020-06-21 09:00:00 19.3 5 Noroeste 13 Noroeste 0 -- -- 70
2020-06-21 08:00:00 17.6 5 Noroeste 13 Oeste 0 -- -- 76
2020-06-21 07:00:00 17.2 4 Norte 16 Noroeste 0 -- -- 70
2020-06-21 06:00:00 17.3 2 Norte 6 Noroeste 0 -- -- 69
2020-06-21 05:00:00 18.1 0 Calma 10 Noroeste 0 -- -- 64
2020-06-21 04:00:00 18.9 2 Oeste 8 Oeste 0 -- -- 61
2020-06-21 03:00:00 19.5 3 Noroeste 17 Noroeste 0 -- -- 62
2020-06-21 02:00:00 20.3 7 Oeste 15 Noroeste 0 -- -- 62
2020-06-21 01:00:00 21.2 6 Oeste 17 Oeste 0 -- -- 59
2020-06-21 00:00:00 22.6 5 Noroeste 14 Noroeste 0 -- -- 53
2020-06-20 23:00:00 24.4 3 Oeste 23 Norte 0 -- -- 55
2020-06-20 22:00:00 26.1 13 Norte 26 Norte 0 -- -- 52
2020-06-20 21:00:00 29.1 6 Norte 20 Noroeste 0 -- -- 42
2020-06-20 20:00:00 30.2 5 Norte 16 Nordeste 0 -- -- 39
2020-06-20 19:00:00 30.1 6 Norte 18 Norte 0 -- -- 40
2020-06-20 18:00:00 29.7 8 Nordeste 19 Nordeste 0 -- -- 43
2020-06-20 17:00:00 29.3 9 Nordeste 18 Nordeste 0 -- -- 41
2020-06-20 16:00:00 28.6 7 Nordeste 16 Nordeste 0 -- -- 44
2020-06-20 15:00:00 27.1 5 Este 15 Este 0 -- -- 46
2020-06-20 14:00:00 25.5 5 Este 14 Nordeste 0 -- -- 53
2020-06-20 13:00:00 24 4 Norte 12 Nordeste 0 -- -- 56
2020-06-20 12:00:00 22.4 5 Norte 17 Nordeste 0 -- -- 62
2020-06-20 11:00:00 21.3 6 Nordeste 17 Norte 0 -- -- 64
2020-06-20 10:00:00 19.8 8 Noroeste 19 Norte 0 -- -- 64
2020-06-20 09:00:00 18.1 9 Norte 17 Noroeste 0 -- -- 70
2020-06-20 08:00:00 15.9 4 Noroeste 13 Oeste 0 -- -- 80
2020-06-20 07:00:00 15.3 5 Noroeste 13 Norte 0 -- -- 82
2020-06-20 06:00:00 15.5 6 Norte 13 Noroeste 0 -- -- 82
2020-06-20 05:00:00 16.1 4 Noroeste 17 Noroeste 0 -- -- 80
2020-06-20 04:00:00 16.8 5 Noroeste 20 Noroeste 0 -- -- 76
2020-06-20 03:00:00 17.3 5 Noroeste 20 Noroeste 0 -- -- 73
2020-06-20 02:00:00 18.1 9 Noroeste 27 Norte 0 -- -- 69
2020-06-20 01:00:00 18.9 8 Noroeste 23 Oeste 0 -- -- 68
2020-06-20 00:00:00 20 13 Noroeste 27 Noroeste 0 -- -- 66
2020-06-19 23:00:00 21.7 8 Noroeste 22 Noroeste 0 -- -- 63
2020-06-19 22:00:00 23.9 11 Norte 22 Noroeste 0 -- -- 57
2020-06-19 21:00:00 27.2 6 Norte 15 Noroeste 0 -- -- 41
2020-06-19 20:00:00 28.5 6 Norte 14 Norte 0 -- -- 40
2020-06-19 19:00:00 28.5 4 Este 14 Nordeste 0 -- -- 41
2020-06-19 18:00:00 28.4 5 Norte 15 Nordeste 0 -- -- 44
2020-06-19 17:00:00 27.5 5 Nordeste 16 Nordeste 0 -- -- 47
2020-06-19 16:00:00 26.8 6 Sur 17 Este 0 -- -- 48
2020-06-19 15:00:00 25.4 8 Este 25 Sur 0 -- -- 48
2020-06-19 14:00:00 24 10 Sudeste 25 Sudeste 0 -- -- 47
2020-06-19 13:00:00 22.8 10 Sudeste 19 Sudeste 0 -- -- 44
2020-06-19 12:00:00 21.5 7 Sudeste 14 Sudeste 0 -- -- 55
2020-06-19 11:00:00 20.2 5 Nordeste 12 Norte 0 -- -- 60
2020-06-19 10:00:00 18.3 4 Norte 12 Norte 0 -- -- 66
2020-06-19 09:00:00 15.5 4 Noroeste 14 Norte 0 -- -- 77
2020-06-19 08:00:00 14.4 6 Norte 10 Norte 0 -- -- 80
2020-06-19 07:00:00 14.1 3 Noroeste 9 Noroeste 0 -- -- 79
2020-06-19 06:00:00 14.3 3 Noroeste 9 Noroeste 0 -- -- 76
2020-06-19 05:00:00 14.5 2 Noroeste 4 Norte 0 -- -- 75
2020-06-19 04:00:00 15.2 3 Noroeste 12 Noroeste 0 -- -- 71
2020-06-19 03:00:00 15.6 7 Oeste 19 Noroeste 0 -- -- 71
2020-06-19 02:00:00 16.1 8 Noroeste 23 Noroeste 0 -- -- 70
2020-06-19 01:00:00 17.1 10 Noroeste 23 Oeste 0 -- -- 67
2020-06-19 00:00:00 18.4 6 Noroeste 23 Noroeste 0 -- -- 63
2020-06-18 23:00:00 19.6 7 Norte 19 Norte 0 -- -- 57
2020-06-18 22:00:00 20.9 9 Norte 22 Noroeste 0 -- -- 52
2020-06-18 21:00:00 21.9 12 Norte 26 Noroeste 0 -- -- 49
2020-06-18 20:00:00 23 8 Norte 20 Noroeste 0 -- -- 45
2020-06-18 19:00:00 23.6 6 Norte 23 Oeste 0 -- -- 44
2020-06-18 18:00:00 24.3 10 Norte 18 Noroeste 0 -- -- 44
2020-06-18 17:00:00 23.8 7 Norte 17 Nordeste 0 -- -- 45
2020-06-18 16:00:00 22.9 7 Noroeste 22 Nordeste 0 -- -- 45
2020-06-18 15:00:00 22.3 7 Nordeste 19 Este 0 -- -- 49
2020-06-18 14:00:00 21.6 10 Nordeste 19 Nordeste 0 -- -- 50
2020-06-18 13:00:00 20.6 6 Este 15 Nordeste 0 -- -- 51
2020-06-18 12:00:00 19.4 6 Este 16 Nordeste 0 -- -- 56
2020-06-18 11:00:00 17.8 3 Norte 13 Norte 0 -- -- 62
2020-06-18 10:00:00 16.3 7 Norte 17 Norte 0 -- -- 66
2020-06-18 09:00:00 14.5 6 Noroeste 16 Oeste 0 -- -- 76
2020-06-18 08:00:00 13 4 Oeste 10 Oeste 0 -- -- 82
2020-06-18 07:00:00 12.5 3 Noroeste 9 Oeste 0 -- -- 84
2020-06-18 06:00:00 13.3 4 Oeste 9 Oeste 0 -- -- 79
2020-06-18 05:00:00 14 5 Noroeste 12 Noroeste 0 -- -- 72
2020-06-18 04:00:00 14.4 6 Noroeste 18 Noroeste 0 -- -- 70
2020-06-18 03:00:00 14.5 5 Oeste 11 Noroeste 0 -- -- 72
2020-06-18 02:00:00 14.6 6 Oeste 11 Oeste 0 -- -- 75
2020-06-18 01:00:00 15 5 Oeste 17 Noroeste 0 -- -- 72
2020-06-18 00:00:00 15.9 7 Noroeste 19 Norte 0 -- -- 69
2020-06-17 23:00:00 16.5 8 Norte 20 Norte 0 -- -- 66
2020-06-17 22:00:00 18.1 9 Norte 25 Norte 0 -- -- 59
2020-06-17 21:00:00 20 12 Norte 31 Norte 0 -- -- 51
2020-06-17 20:00:00 21.6 6 Norte 18 Nordeste 0 -- -- 47
2020-06-17 19:00:00 23 7 Norte 23 Noroeste 0 -- -- 43
2020-06-17 18:00:00 22.5 8 Noroeste 20 Norte 0 -- -- 46
2020-06-17 17:00:00 21.7 9 Norte 21 Norte 0 -- -- 50
2020-06-17 16:00:00 21.6 8 Norte 19 Norte 0 -- -- 49
2020-06-17 15:00:00 20.4 8 Noroeste 19 Noroeste 0 -- -- 52
2020-06-17 14:00:00 19.5 5 Noroeste 18 Oeste 0 -- -- 60
2020-06-17 13:00:00 17.7 5 Noroeste 16 Oeste 0 -- -- 67
2020-06-17 12:00:00 17 6 Oeste 14 Oeste 0 -- -- 70
2020-06-17 11:00:00 16.2 7 Oeste 15 Norte 0 -- -- 69
2020-06-17 10:00:00 16 5 Noroeste 14 Noroeste 0 -- -- 77
2020-06-17 09:00:00 15.1 6 Noroeste 14 Noroeste 0 -- -- 82
2020-06-17 08:00:00 14.3 4 Noroeste 9 Oeste 0 -- -- 88
2020-06-17 07:00:00 13.8 3 Noroeste 9 Oeste 0 -- -- 89
2020-06-17 06:00:00 14 3 Noroeste 10 Oeste 0 -- -- 89
2020-06-17 05:00:00 14.2 4 Noroeste 12 Norte 0 -- -- 86
2020-06-17 04:00:00 14.3 5 Noroeste 12 Noroeste 0 -- -- 86
2020-06-17 03:00:00 14.4 5 Noroeste 12 Oeste 0 -- -- 87
2020-06-17 02:00:00 14.3 4 Noroeste 11 Oeste 0 -- -- 88
2020-06-17 01:00:00 14.3 5 Noroeste 13 Oeste 0 -- -- 87
2020-06-17 00:00:00 14.6 6 Norte 19 Noroeste 0 -- -- 86
2020-06-16 23:00:00 15.4 6 Norte 21 Oeste 0 -- -- 89
2020-06-16 22:00:00 14.9 6 Noroeste 15 Oeste 0 -- -- 91
2020-06-16 21:00:00 15.3 6 Oeste 19 Noroeste 1 -- -- 91
2020-06-16 20:00:00 15.9 9 Oeste 22 Nordeste 0.4 -- -- 88
2020-06-16 19:00:00 16.8 13 Norte 41 Norte 0.4 -- -- 83
2020-06-16 18:00:00 16.6 12 Norte 42 Norte 1.6 -- -- 84
2020-06-16 17:00:00 20.7 18 Norte 38 Noroeste 0 -- -- 56
2020-06-16 16:00:00 23.7 6 Este 16 Norte 0 -- -- 46
2020-06-16 15:00:00 23.3 3 Norte 13 Norte 0 -- -- 46
2020-06-16 14:00:00 23.4 5 Sur 15 Nordeste 0 -- -- 48
2020-06-16 13:00:00 22.5 6 Sur 14 Sudoeste 0 -- -- 53
2020-06-16 12:00:00 20.5 4 Este 14 Oeste 0 -- -- 61
2020-06-16 11:00:00 18.7 7 Norte 16 Norte 0 -- -- 62
2020-06-16 10:00:00 17.2 7 Norte 14 Norte 0 -- -- 67
2020-06-16 09:00:00 16.7 3 Noroeste 15 Noroeste 0 -- -- 69
2020-06-16 08:00:00 16.2 5 Norte 14 Norte 0 -- -- 68
2020-06-16 07:00:00 15.6 4 Noroeste 12 Oeste 0 -- -- 68
2020-06-16 06:00:00 15.8 5 Norte 10 Norte 0 -- -- 67
2020-06-16 05:00:00 16 4 Sudoeste 10 Noroeste 0 -- -- 64
2020-06-16 04:00:00 16.1 2 Oeste 18 Noroeste 0 -- -- 63
2020-06-16 03:00:00 16.3 6 Noroeste 17 Oeste 0 -- -- 63
2020-06-16 02:00:00 16.7 7 Noroeste 23 Oeste 0 -- -- 62
2020-06-16 01:00:00 17.3 9 Oeste 21 Oeste 0 -- -- 62
2020-06-16 00:00:00 18.7 8 Noroeste 21 Noroeste 0 -- -- 61
2020-06-15 23:00:00 19.9 6 Noroeste 18 Norte 0 -- -- 59
2020-06-15 22:00:00 21.3 8 Norte 18 Norte 0 -- -- 53
2020-06-15 21:00:00 22.6 9 Norte 21 Norte 0 -- -- 50
2020-06-15 20:00:00 23.2 9 Norte 19 Nordeste 0 -- -- 48
2020-06-15 19:00:00 23.3 10 Norte 24 Noroeste 0 -- -- 47
2020-06-15 18:00:00 24.7 9 Noroeste 25 Noroeste 0 -- -- 44
2020-06-15 17:00:00 24.9 8 Norte 19 Nordeste 0 -- -- 44
2020-06-15 16:00:00 25.3 10 Nordeste 24 Norte 0 -- -- 46
2020-06-15 15:00:00 24.2 10 Norte 21 Norte 0 -- -- 44
2020-06-15 14:00:00 23.4 10 Norte 22 Este 0 -- -- 48
2020-06-15 13:00:00 22.4 8 Nordeste 17 Norte 0 -- -- 51
2020-06-15 12:00:00 21.4 5 Norte 16 Noroeste 0 -- -- 53
2020-06-15 11:00:00 19 6 Norte 15 Noroeste 0 -- -- 59
2020-06-15 10:00:00 16.8 9 Norte 18 Norte 0 -- -- 64
2020-06-15 09:00:00 15.9 5 Noroeste 13 Noroeste 0 -- -- 69
2020-06-15 08:00:00 14.6 5 Oeste 13 Oeste 0 -- -- 72
2020-06-15 07:00:00 14 5 Oeste 16 Oeste 0 -- -- 72
2020-06-15 06:00:00 14.6 6 Oeste 16 Noroeste 0 -- -- 68
2020-06-15 05:00:00 15.2 2 Noroeste 14 Noroeste 0 -- -- 64
2020-06-15 04:00:00 15.5 5 Oeste 23 Noroeste 0 -- -- 65
2020-06-15 03:00:00 15.3 8 Noroeste 23 Oeste 0 -- -- 65
2020-06-15 02:00:00 15.7 9 Oeste 20 Oeste 0 -- -- 66
2020-06-15 01:00:00 17.1 9 Noroeste 21 Noroeste 0 -- -- 60
2020-06-15 00:00:00 18.1 8 Noroeste 19 Noroeste 0 -- -- 57
2020-06-14 23:00:00 19.1 5 Norte 21 Noroeste 0 -- -- 57
2020-06-14 22:00:00 20.1 13 Norte 27 Norte 0 -- -- 57
2020-06-14 21:00:00 22.6 9 Norte 26 Noroeste 0 -- -- 44
2020-06-14 20:00:00 23.2 9 Norte 24 Norte 0 -- -- 43
2020-06-14 19:00:00 23.9 9 Norte 23 Norte 0 -- -- 42
2020-06-14 18:00:00 24.5 10 Norte 21 Norte 0 -- -- 42
2020-06-14 17:00:00 25.4 5 Noroeste 19 Nordeste 0 -- -- 39
2020-06-14 16:00:00 25.4 5 Oeste 14 Noroeste 0 -- -- 40
2020-06-14 15:00:00 24.1 5 Sudoeste 16 Noroeste 0 -- -- 45
2020-06-14 14:00:00 23.3 6 Nordeste 13 Nordeste 0 -- -- 45
2020-06-14 13:00:00 22.1 5 Este 15 Norte 0 -- -- 50
2020-06-14 12:00:00 21 7 Nordeste 15 Este 0 -- -- 56
2020-06-14 11:00:00 19.8 4 Norte 11 Noroeste 0 -- -- 62
2020-06-14 10:00:00 17.4 5 Norte 10 Norte 0 -- -- 69
2020-06-14 09:00:00 16.5 4 Noroeste 12 Noroeste 0 -- -- 75
2020-06-14 08:00:00 15.4 4 Noroeste 11 Noroeste 0 -- -- 79
2020-06-14 07:00:00 15.1 3 Noroeste 13 Noroeste 0 -- -- 79
2020-06-14 06:00:00 15.2 2 Noroeste 10 Norte 0 -- -- 78
2020-06-14 05:00:00 15.5 4 Norte 10 Noroeste 0 -- -- 76
2020-06-14 04:00:00 16.1 3 Noroeste 7 Noroeste 0 -- -- 72
2020-06-14 03:00:00 15.9 2 Norte 7 Oeste 0 -- -- 71
2020-06-14 02:00:00 15.8 5 Sur 7 Sur 0 -- -- 72
2020-06-14 01:00:00 16.2 4 Oeste 7 Oeste 0 -- -- 69
2020-06-14 00:00:00 16.8 3 Oeste 8 Sudoeste 0 -- -- 65
2020-06-13 23:00:00 18.4 2 Noroeste 7 Oeste 0 -- -- 59
2020-06-13 22:00:00 19.9 5 Sudoeste 7 Sudoeste 0 -- -- 52
2020-06-13 21:00:00 21.9 4 Oeste 7 Noroeste 0 -- -- 45
2020-06-13 20:00:00 22.2 4 Norte 12 Norte 0 -- -- 41
2020-06-13 19:00:00 23.1 3 Oeste 18 Norte 0 -- -- 41
2020-06-13 18:00:00 23.1 8 Norte 19 Norte 0 -- -- 41
2020-06-13 17:00:00 22.3 9 Nordeste 16 Norte 0 -- -- 43
2020-06-13 16:00:00 21.4 7 Nordeste 13 Norte 0 -- -- 45
2020-06-13 15:00:00 18.4 8 Norte 22 Noroeste 0 -- -- 61
2020-06-13 14:00:00 19.4 4 Sudeste 12 Nordeste 0 -- -- 53
2020-06-13 13:00:00 19.1 4 Sudeste 20 Nordeste 0 -- -- 53
2020-06-13 12:00:00 19.9 10 Norte 21 Nordeste 0 -- -- 54
2020-06-13 11:00:00 18.7 9 Nordeste 18 Nordeste 0 -- -- 58
2020-06-13 10:00:00 18.1 9 Nordeste 16 Nordeste 0 -- -- 67
2020-06-13 09:00:00 16.7 5 Nordeste 8 Norte 0 -- -- 72
2020-06-13 08:00:00 14.1 2 Nordeste 13 Noroeste 0 -- -- 78
2020-06-13 07:00:00 13.7 6 Oeste 19 Oeste 0 -- -- 73
2020-06-13 06:00:00 14.4 8 Sudoeste 27 Sudoeste 0 -- -- 70
2020-06-13 05:00:00 14.7 9 Sudoeste 28 Sudoeste 0 -- -- 68
2020-06-13 04:00:00 15 10 Oeste 26 Oeste 0 -- -- 66
2020-06-13 03:00:00 14.8 10 Sudoeste 19 Sudoeste 0 -- -- 69
2020-06-13 02:00:00 14.8 7 Sudoeste 25 Sur 0 -- -- 69
2020-06-13 01:00:00 13.7 3 Sur 10 Sur 0 -- -- 79
2020-06-13 00:00:00 14.4 3 Sur 12 Sur 0.6 -- -- 80
2020-06-12 23:00:00 15.3 3 Oeste 13 Sudoeste 0 -- -- 71
2020-06-12 22:00:00 15.5 2 Sur 11 Norte 0 -- -- 79
2020-06-12 21:00:00 16.7 4 Norte 30 Sur 0.2 -- -- 71
2020-06-12 20:00:00 18.2 5 Sudoeste 27 Sudoeste 0 -- -- 58
2020-06-12 19:00:00 20.8 9 Sudoeste 24 Oeste 0 -- -- 47
2020-06-12 18:00:00 18.8 9 Sur 28 Sudoeste 0 -- -- 54
2020-06-12 17:00:00 17.8 10 Sur 27 Sudoeste 0 -- -- 60
2020-06-12 16:00:00 16.7 6 Oeste 23 Oeste 0.2 -- -- 70
2020-06-12 15:00:00 18.4 7 Sudeste 18 Sudoeste 0 -- -- 53
2020-06-12 14:00:00 17.5 12 Sudoeste 37 Oeste 0 -- -- 63
2020-06-12 13:00:00 18.3 14 Sudoeste 36 Sudoeste 0 -- -- 49
2020-06-12 12:00:00 18 16 Sudoeste 35 Sudoeste 0 -- -- 49
2020-06-12 11:00:00 16.9 12 Sudoeste 31 Sudoeste 0 -- -- 52
2020-06-12 10:00:00 16.4 12 Sudoeste 26 Sudoeste 0 -- -- 54
2020-06-12 09:00:00 16.1 8 Sudoeste 24 Oeste 0 -- -- 53
2020-06-12 08:00:00 13.6 9 Sudoeste 23 Oeste 0 -- -- 60
2020-06-12 07:00:00 12.4 6 Sudoeste 16 Este 0 -- -- 63
2020-06-12 06:00:00 11.3 5 Sur 19 Sudoeste 0 -- -- 70
2020-06-12 05:00:00 10 5 Sur 12 Sudeste 0 -- -- 89
2020-06-12 04:00:00 10.5 4 Sur 6 Sur 0 -- -- 86
2020-06-12 03:00:00 11 0 Calma 12 Noroeste 0 -- -- 83
2020-06-12 02:00:00 11.4 6 Oeste 14 Oeste 0 -- -- 83
2020-06-12 01:00:00 12.3 4 Noroeste 18 Sudoeste 0 -- -- 78
2020-06-12 00:00:00 12.7 8 Noroeste 24 Norte 0 -- -- 77